Time;durP1;ratioP1;P1;durP2;ratioP2;P2;SDS_P1;SDS_P2;PMS_P1;PMS_P2;Temp;Humidity;BMP_temperature;BMP_pressure;BME280_temperature;BME280_humidity;BME280_pressure;Samples;Min_cycle;Max_cycle;Signal;HPM_P1;HPM_P2
2024/02/15 00:00:37;;;;;;;1.98;0.50;;;22.10;47.90;;;;;;5077730;28;20033;-35
2024/02/15 00:03:07;;;;;;;3.28;0.73;;;22.20;47.40;;;;;;5073211;28;20033;-35
2024/02/15 00:05:37;;;;;;;6.15;1.00;;;22.20;47.30;;;;;;5066819;28;20102;-35
2024/02/15 00:08:04;;;;;;;2.53;0.80;;;22.20;47.50;;;;;;5054658;28;20040;-35
2024/02/15 00:10:30;;;;;;;4.20;0.98;;;22.20;47.50;;;;;;5053260;28;20063;-35
2024/02/15 00:12:56;;;;;;;4.07;0.93;;;22.20;47.70;;;;;;5056463;28;20100;-36
2024/02/15 00:15:22;;;;;;;5.65;0.80;;;22.20;47.70;;;;;;5052305;28;20032;-36
2024/02/15 00:17:48;;;;;;;4.40;0.70;;;22.20;47.80;;;;;;5050175;28;20033;-36
2024/02/15 00:20:15;;;;;;;0.60;0.50;;;22.10;48.20;;;;;;5049560;28;20025;-36
2024/02/15 00:22:41;;;;;;;2.75;0.60;;;22.20;48.30;;;;;;5050847;28;20028;-35
2024/02/15 00:25:08;;;;;;;2.10;0.70;;;22.20;48.20;;;;;;5050031;28;20048;-35
2024/02/15 00:27:35;;;;;;;4.28;0.50;;;22.30;47.80;;;;;;5057321;28;20039;-36
2024/02/15 00:30:02;;;;;;;3.83;0.65;;;22.20;48.00;;;;;;5052991;28;20043;-36
2024/02/15 00:32:28;;;;;;;2.25;0.75;;;22.20;48.20;;;;;;5059559;28;20124;-36
2024/02/15 00:34:54;;;;;;;4.75;0.90;;;22.20;48.50;;;;;;5057893;28;20048;-36
2024/02/15 00:37:21;;;;;;;6.95;0.73;;;22.20;47.70;;;;;;5062537;28;20029;-35
2024/02/15 00:39:47;;;;;;;1.73;0.70;;;22.20;48.00;;;;;;5050254;28;20032;-36
2024/02/15 00:42:13;;;;;;;3.90;0.88;;;22.30;48.00;;;;;;5060492;28;20025;-36
2024/02/15 00:44:39;;;;;;;1.65;0.68;;;22.20;47.90;;;;;;5055296;28;20378;-36
2024/02/15 00:47:05;;;;;;;1.37;0.70;;;22.20;47.80;;;;;;5059908;28;20040;-36
2024/02/15 00:49:32;;;;;;;5.20;0.77;;;22.20;47.70;;;;;;5059412;28;20281;-36
2024/02/15 00:51:58;;;;;;;2.72;0.82;;;22.20;47.60;;;;;;5056151;28;20068;-36
2024/02/15 00:54:24;;;;;;;4.22;0.93;;;22.20;47.50;;;;;;5058582;28;20029;-36
2024/02/15 00:56:51;;;;;;;4.22;0.90;;;22.20;47.60;;;;;;5063220;28;20040;-36
2024/02/15 00:59:18;;;;;;;4.35;0.88;;;22.30;47.50;;;;;;5059242;28;20029;-36
2024/02/15 01:01:44;;;;;;;2.22;0.80;;;22.20;47.50;;;;;;5054784;28;20041;-36
2024/02/15 01:04:11;;;;;;;3.27;0.80;;;22.20;47.60;;;;;;5054680;28;20052;-35
2024/02/15 01:06:37;;;;;;;4.47;0.70;;;22.20;47.60;;;;;;5075600;28;20104;-36
2024/02/15 01:09:03;;;;;;;5.13;0.95;;;22.20;47.70;;;;;;5072826;28;20048;-36
2024/02/15 01:11:32;;;;;;;2.15;0.70;;;22.10;47.50;;;;;;5073105;28;20051;-36
2024/02/15 01:13:58;;;;;;;2.05;0.68;;;22.10;47.40;;;;;;5075543;28;20028;-35
2024/02/15 01:16:25;;;;;;;3.60;0.70;;;22.10;47.50;;;;;;5075145;28;20128;-36
2024/02/15 01:18:51;;;;;;;2.80;0.80;;;22.10;47.60;;;;;;5075830;28;20031;-36
2024/02/15 01:21:18;;;;;;;3.60;0.75;;;22.00;47.60;;;;;;5074306;28;20288;-36
2024/02/15 01:23:46;;;;;;;4.22;0.63;;;22.00;47.80;;;;;;5076198;28;20033;-35
2024/02/15 01:26:12;;;;;;;;;;;21.90;47.90;;;;;;5078613;28;20031;-35
2024/02/15 01:28:39;;;;;;;2.63;0.75;;;21.90;48.50;;;;;;5073166;28;19935;-35
2024/02/15 01:31:06;;;;;;;2.10;0.70;;;22.00;49.50;;;;;;5078761;28;20098;-35
2024/02/15 01:33:32;;;;;;;4.30;0.70;;;22.00;48.70;;;;;;5076269;28;20032;-35
2024/02/15 01:35:58;;;;;;;1.80;0.52;;;22.10;48.50;;;;;;5070916;28;20044;-35
2024/02/15 01:38:25;;;;;;;2.75;0.70;;;22.10;48.40;;;;;;5068652;28;20048;-35
2024/02/15 01:40:51;;;;;;;4.78;0.68;;;22.00;48.10;;;;;;5070725;28;20029;-35
2024/02/15 01:43:17;;;;;;;3.92;1.02;;;22.00;48.30;;;;;;5057765;28;20032;-34
2024/02/15 01:45:43;;;;;;;11.23;1.30;;;22.00;48.50;;;;;;5074589;28;20037;-42
2024/02/15 01:48:10;;;;;;;3.80;0.98;;;22.00;48.70;;;;;;5070640;28;20037;-36
2024/02/15 01:50:36;;;;;;;3.60;0.90;;;22.10;48.70;;;;;;5044528;28;20202;-35
2024/02/15 01:53:04;;;;;;;3.42;0.80;;;22.10;48.80;;;;;;5077974;28;20041;-34
2024/02/15 01:55:30;;;;;;;6.47;1.10;;;22.10;49.00;;;;;;5061931;28;20040;-34
2024/02/15 01:57:56;;;;;;;3.25;1.23;;;22.10;48.80;;;;;;5081410;28;20086;-34
2024/02/15 02:00:24;;;;;;;3.47;0.80;;;22.10;48.50;;;;;;5078392;28;20036;-34
2024/02/15 02:02:50;;;;;;;3.70;0.75;;;22.10;48.40;;;;;;5083023;28;20078;-35
2024/02/15 02:05:16;;;;;;;1.05;0.60;;;22.00;48.20;;;;;;5054616;28;20052;-35
2024/02/15 02:07:42;;;;;;;1.42;0.60;;;22.10;48.20;;;;;;5057454;28;20028;-34
2024/02/15 02:10:11;;;;;;;2.42;0.75;;;22.10;48.10;;;;;;5061358;28;20021;-42
2024/02/15 02:12:39;;;;;;;1.42;0.70;;;22.10;48.10;;;;;;5053177;28;20029;-35
2024/02/15 02:15:07;;;;;;;0.93;0.43;;;22.10;48.00;;;;;;5060306;28;20494;-35
2024/02/15 02:17:35;;;;;;;0.88;0.63;;;22.00;47.90;;;;;;5060215;28;20036;-35
2024/02/15 02:20:07;;;;;;;1.40;0.63;;;22.00;47.80;;;;;;5052453;28;20040;-35
2024/02/15 02:22:35;;;;;;;1.33;0.50;;;22.00;47.90;;;;;;5055488;28;20029;-36
2024/02/15 02:25:08;;;;;;;0.88;0.50;;;22.00;47.80;;;;;;5041622;28;20092;-36
2024/02/15 02:27:35;;;;;;;1.38;0.57;;;22.00;47.90;;;;;;5056213;28;20029;-35
2024/02/15 02:30:10;;;;;;;;;;;21.90;47.80;;;;;;5057105;28;20041;-36
2024/02/15 02:32:36;;;;;;;3.63;0.68;;;21.90;47.90;;;;;;5051647;28;19974;-36
2024/02/15 02:35:03;;;;;;;1.13;0.70;;;21.80;47.90;;;;;;5056752;28;20044;-35
2024/02/15 02:37:29;;;;;;;0.88;0.65;;;21.80;48.10;;;;;;5059970;28;20059;-35
2024/02/15 02:39:55;;;;;;;1.63;0.50;;;21.70;48.00;;;;;;5056936;28;20037;-35
2024/02/15 02:42:22;;;;;;;0.68;0.40;;;21.70;47.90;;;;;;5056370;28;20056;-37
2024/02/15 02:44:48;;;;;;;0.40;0.40;;;21.70;47.90;;;;;;5056546;28;20089;-35
2024/02/15 02:47:15;;;;;;;1.00;0.60;;;21.70;48.00;;;;;;5061874;28;20036;-35
2024/02/15 02:49:42;;;;;;;1.05;0.50;;;21.70;47.90;;;;;;5058551;28;20790;-36
2024/02/15 02:52:08;;;;;;;1.55;0.60;;;21.60;47.90;;;;;;5059901;28;20899;-36
2024/02/15 02:54:34;;;;;;;0.77;0.52;;;21.60;48.00;;;;;;5060106;28;20033;-36
2024/02/15 02:57:00;;;;;;;0.97;0.60;;;21.50;48.00;;;;;;5057297;28;20041;-36
2024/02/15 02:59:27;;;;;;;2.35;0.77;;;21.60;48.00;;;;;;5060740;28;20021;-36
2024/02/15 03:01:56;;;;;;;0.63;0.60;;;21.60;48.00;;;;;;5055508;28;20083;-36
2024/02/15 03:04:22;;;;;;;0.90;0.50;;;21.60;48.10;;;;;;5056070;28;20040;-40
2024/02/15 03:06:48;;;;;;;2.75;0.50;;;21.60;48.00;;;;;;5081570;28;20065;-36
2024/02/15 03:09:14;;;;;;;1.48;0.50;;;21.50;48.00;;;;;;5082450;28;20039;-36
2024/02/15 03:11:40;;;;;;;0.65;0.50;;;21.50;48.60;;;;;;5070005;28;20045;-36
2024/02/15 03:14:07;;;;;;;0.68;0.50;;;21.40;48.00;;;;;;5082622;28;20025;-36
2024/02/15 03:16:35;;;;;;;1.15;0.50;;;21.40;48.10;;;;;;5063309;28;20568;-36
2024/02/15 03:19:02;;;;;;;0.77;0.45;;;21.40;48.00;;;;;;5073059;28;20028;-35
2024/02/15 03:21:29;;;;;;;0.70;0.45;;;21.50;48.10;;;;;;5078499;28;20766;-35
2024/02/15 03:23:55;;;;;;;0.90;0.40;;;21.40;48.10;;;;;;5075756;28;20557;-36
2024/02/15 03:26:40;;;;;;;0.47;0.40;;;21.40;48.00;;;;;;5076553;28;20052;-36
2024/02/15 03:29:09;;;;;;;0.50;0.40;;;21.30;48.10;;;;;;5082501;28;20674;-36
2024/02/15 03:31:36;;;;;;;0.63;0.45;;;21.30;48.10;;;;;;5077348;28;20029;-44
2024/02/15 03:34:04;;;;;;;0.70;0.52;;;21.30;48.10;;;;;;5077163;28;20035;-35
2024/02/15 03:36:30;;;;;;;0.80;0.35;;;21.40;48.10;;;;;;5081122;28;20043;-35
2024/02/15 03:38:56;;;;;;;0.98;0.55;;;21.30;48.10;;;;;;5078293;28;20397;-36
2024/02/15 03:41:23;;;;;;;0.85;0.50;;;21.30;48.10;;;;;;5082023;28;20048;-36
2024/02/15 03:43:50;;;;;;;2.10;0.57;;;21.30;48.10;;;;;;5081338;28;20028;-36
2024/02/15 03:46:16;;;;;;;1.13;0.73;;;21.20;48.10;;;;;;5073125;28;20307;-35
2024/02/15 03:48:43;;;;;;;0.70;0.50;;;21.20;48.20;;;;;;5076394;28;20048;-36
2024/02/15 03:51:10;;;;;;;0.40;0.40;;;21.20;48.20;;;;;;5057320;28;20032;-36
2024/02/15 03:53:37;;;;;;;0.65;0.50;;;21.20;48.10;;;;;;5075598;28;20481;-36
2024/02/15 03:56:06;;;;;;;0.50;0.47;;;21.20;48.20;;;;;;5081988;28;20037;-36
2024/02/15 03:58:32;;;;;;;1.20;0.60;;;21.20;48.20;;;;;;5081906;28;20037;-35
2024/02/15 04:00:59;;;;;;;0.47;0.40;;;21.20;48.20;;;;;;5075048;28;20025;-35
2024/02/15 04:03:25;;;;;;;2.08;0.60;;;21.10;48.20;;;;;;5075877;28;20667;-36
2024/02/15 04:05:52;;;;;;;0.50;0.40;;;21.10;48.20;;;;;;5078823;28;20743;-35
2024/02/15 04:08:18;;;;;;;0.52;0.50;;;21.10;48.30;;;;;;5078562;28;20091;-35
2024/02/15 04:10:45;;;;;;;0.80;0.60;;;21.10;48.20;;;;;;5076777;28;20090;-36
2024/02/15 04:13:11;;;;;;;0.90;0.70;;;21.10;48.30;;;;;;5077846;28;20059;-36
2024/02/15 04:15:38;;;;;;;1.15;0.50;;;21.10;48.30;;;;;;5076007;28;20448;-36
2024/02/15 04:18:05;;;;;;;1.02;0.60;;;21.10;48.30;;;;;;5074330;28;20037;-36
2024/02/15 04:20:31;;;;;;;;;;;21.00;48.30;;;;;;5075362;28;20036;-36
2024/02/15 04:22:59;;;;;;;1.05;0.60;;;21.00;48.30;;;;;;5081314;28;19908;-36
2024/02/15 04:25:27;;;;;;;1.13;0.57;;;21.00;48.30;;;;;;5076701;28;20036;-35
2024/02/15 04:27:54;;;;;;;1.58;0.45;;;21.10;48.30;;;;;;5078130;28;20615;-36
2024/02/15 04:30:22;;;;;;;0.82;0.60;;;21.10;48.40;;;;;;5070932;28;20033;-36
2024/02/15 04:32:49;;;;;;;0.95;0.80;;;21.00;48.30;;;;;;5081427;28;20040;-36
2024/02/15 04:35:15;;;;;;;1.95;0.90;;;21.00;48.30;;;;;;5076680;28;20024;-36
2024/02/15 04:37:41;;;;;;;1.48;0.70;;;20.90;48.30;;;;;;5082365;28;20036;-38
2024/02/15 04:40:10;;;;;;;1.17;0.80;;;21.00;48.40;;;;;;5078862;28;20039;-36
2024/02/15 04:42:39;;;;;;;1.23;0.90;;;21.00;48.30;;;;;;5071225;28;20021;-35
2024/02/15 04:45:10;;;;;;;1.45;0.70;;;21.00;48.40;;;;;;5077971;28;20029;-35
2024/02/15 04:47:36;;;;;;;1.15;0.75;;;21.00;48.30;;;;;;5077770;28;20375;-39
2024/02/15 04:50:05;;;;;;;1.10;0.80;;;20.90;48.30;;;;;;5078318;28;20050;-36
2024/02/15 04:52:32;;;;;;;0.90;0.80;;;20.90;48.40;;;;;;5080668;28;20054;-35
2024/02/15 04:54:58;;;;;;;2.47;0.90;;;21.00;48.30;;;;;;5079853;28;20033;-35
2024/02/15 04:57:28;;;;;;;1.00;0.90;;;21.10;48.30;;;;;;5080526;28;20029;-35
2024/02/15 04:59:59;;;;;;;1.15;0.90;;;21.20;48.20;;;;;;5075456;28;20039;-43
2024/02/15 05:02:25;;;;;;;1.70;1.00;;;21.20;48.20;;;;;;5067068;28;20096;-36
2024/02/15 05:04:56;;;;;;;4.30;1.00;;;21.20;48.00;;;;;;5066885;28;20075;-35
2024/02/15 05:07:22;;;;;;;1.85;0.90;;;21.20;48.00;;;;;;5033735;28;20025;-35
2024/02/15 05:09:49;;;;;;;1.87;1.00;;;21.20;48.00;;;;;;5057180;28;20033;-35
2024/02/15 05:12:24;;;;;;;1.55;0.90;;;21.20;48.00;;;;;;5056735;28;20044;-40
2024/02/15 05:14:50;;;;;;;1.40;1.13;;;21.20;48.10;;;;;;5042473;28;20596;-35
2024/02/15 05:17:17;;;;;;;2.30;1.30;;;21.10;48.20;;;;;;5053481;28;20553;-35
2024/02/15 05:19:43;;;;;;;0.85;0.80;;;21.10;48.00;;;;;;5058051;28;20036;-34
2024/02/15 05:22:11;;;;;;;2.55;1.10;;;21.00;48.10;;;;;;5054330;28;20029;-34
2024/02/15 05:24:38;;;;;;;0.85;0.70;;;21.00;48.20;;;;;;5062838;28;20029;-35
2024/02/15 05:27:05;;;;;;;1.20;0.90;;;20.90;48.20;;;;;;5057724;28;20044;-35
2024/02/15 05:29:52;;;;;;;1.27;0.82;;;21.00;48.10;;;;;;5064151;28;20032;-35
2024/02/15 05:32:20;;;;;;;1.50;1.17;;;21.00;48.10;;;;;;4978081;28;20919;-35
2024/02/15 05:34:47;;;;;;;0.90;0.80;;;21.00;48.20;;;;;;4978423;28;20061;-36
2024/02/15 05:37:15;;;;;;;1.20;1.10;;;20.90;48.10;;;;;;4972322;28;20042;-35
2024/02/15 05:39:41;;;;;;;1.38;0.90;;;20.90;48.30;;;;;;4982467;28;20094;-35
2024/02/15 05:42:10;;;;;;;2.83;1.13;;;20.80;48.30;;;;;;4983095;28;20030;-35
2024/02/15 05:44:36;;;;;;;1.77;1.40;;;20.80;48.30;;;;;;4982564;28;20034;-36
2024/02/15 05:47:02;;;;;;;2.53;1.23;;;20.80;48.20;;;;;;4979804;28;20042;-35
2024/02/15 05:49:28;;;;;;;1.63;1.10;;;20.90;48.30;;;;;;4982093;28;20067;-35
2024/02/15 05:51:54;;;;;;;4.03;1.10;;;20.80;48.30;;;;;;4975493;28;20035;-35
2024/02/15 05:54:22;;;;;;;1.92;1.17;;;20.80;48.30;;;;;;4972356;28;20037;-35
2024/02/15 05:56:51;;;;;;;4.07;1.30;;;20.80;48.40;;;;;;4973770;28;20113;-35
2024/02/15 05:59:20;;;;;;;3.78;1.27;;;20.70;48.50;;;;;;4982757;28;20062;-34
2024/02/15 06:01:48;;;;;;;1.70;1.20;;;20.70;48.40;;;;;;4981359;28;20029;-35
2024/02/15 06:04:16;;;;;;;2.80;1.40;;;20.80;48.40;;;;;;4980053;28;20034;-35
2024/02/15 06:06:42;;;;;;;4.57;1.20;;;20.80;48.40;;;;;;4999689;28;20045;-35
2024/02/15 06:09:09;;;;;;;2.42;1.17;;;20.70;48.30;;;;;;5019818;28;20071;-35
2024/02/15 06:11:37;;;;;;;4.13;1.52;;;20.70;48.40;;;;;;5060609;28;20511;-34
2024/02/15 06:14:03;;;;;;;1.85;1.20;;;20.60;48.50;;;;;;5058829;28;20471;-35
2024/02/15 06:16:29;;;;;;;1.70;1.40;;;20.60;48.50;;;;;;5039086;28;20039;-35
2024/02/15 06:18:55;;;;;;;1.58;1.20;;;20.60;48.40;;;;;;5055235;28;20029;-35
2024/02/15 06:21:21;;;;;;;4.07;1.40;;;20.70;48.40;;;;;;5056211;28;20028;-34
2024/02/15 06:23:50;;;;;;;2.45;1.30;;;20.60;48.50;;;;;;5057261;28;20085;-34
2024/02/15 06:26:16;;;;;;;1.85;1.23;;;20.60;48.40;;;;;;5060117;28;20037;-34
2024/02/15 06:39:41;;;;;;;2.40;1.45;;;20.50;48.50;;;;;;5056690;28;20561;-34
2024/02/15 06:42:09;;;;;;;1.77;1.17;;;20.50;48.50;;;;;;5052126;28;20136;-34
2024/02/15 06:44:35;;;;;;;2.10;1.40;;;20.40;48.50;;;;;;5047737;28;20037;-34
2024/02/15 06:47:01;;;;;;;2.08;1.40;;;20.40;48.60;;;;;;5050101;28;20036;-35
2024/02/15 06:49:28;;;;;;;2.40;1.48;;;20.40;48.60;;;;;;5054240;28;20059;-35
2024/02/15 06:51:54;;;;;;;2.35;1.60;;;20.40;48.60;;;;;;5049203;28;20037;-35
2024/02/15 06:54:20;;;;;;;1.73;1.40;;;20.40;48.60;;;;;;5047760;28;20033;-35
2024/02/15 06:56:47;;;;;;;1.95;1.25;;;20.40;48.60;;;;;;5046725;28;20064;-35
2024/02/15 06:59:18;;;;;;;4.10;1.55;;;20.30;48.60;;;;;;5049662;28;20029;-36
2024/02/15 07:01:44;;;;;;;1.80;1.40;;;20.30;48.70;;;;;;5051294;28;20116;-35
2024/02/15 07:04:10;;;;;;;2.13;1.42;;;20.30;48.80;;;;;;5049026;28;20017;-36
2024/02/15 07:06:39;;;;;;;2.03;1.40;;;20.30;48.80;;;;;;5067985;28;20044;-34
2024/02/15 07:09:09;;;;;;;2.40;1.45;;;20.40;48.70;;;;;;5072671;28;20087;-34
2024/02/15 07:11:36;;;;;;;3.60;1.50;;;20.50;48.70;;;;;;5060342;28;20040;-34
2024/02/15 07:14:04;;;;;;;4.65;1.90;;;20.50;48.70;;;;;;5067487;28;20048;-34
2024/02/15 07:16:30;;;;;;;3.70;1.63;;;20.40;48.70;;;;;;5069337;28;20082;-38
2024/02/15 07:18:56;;;;;;;2.85;1.33;;;20.40;48.90;;;;;;5069824;28;20067;-34
2024/02/15 07:21:26;;;;;;;2.42;1.50;;;20.50;48.90;;;;;;5067547;28;20088;-34
2024/02/15 07:23:54;;;;;;;6.43;1.80;;;20.50;48.90;;;;;;5070286;28;20032;-34
2024/02/15 07:26:24;;;;;;;2.42;1.63;;;20.50;49.00;;;;;;5047262;28;20061;-34
2024/02/15 07:28:53;;;;;;;3.70;2.00;;;20.40;48.80;;;;;;5066253;28;20059;-34
2024/02/15 07:31:22;;;;;;;4.72;1.50;;;20.30;48.80;;;;;;5074097;28;20142;-34
2024/02/15 07:33:50;;;;;;;2.92;1.58;;;20.30;49.00;;;;;;5065067;28;20416;-34
2024/02/15 07:36:23;;;;;;;2.10;1.70;;;20.30;48.90;;;;;;5066743;28;20025;-34
2024/02/15 07:39:00;;;;;;;3.75;1.50;;;20.40;48.90;;;;;;5070527;28;20391;-34
2024/02/15 07:41:27;;;;;;;2.17;1.50;;;20.40;48.90;;;;;;5067709;28;20433;-34
2024/02/15 07:43:55;;;;;;;3.90;1.63;;;20.30;48.90;;;;;;5053767;28;20035;-34
2024/02/15 07:46:21;;;;;;;;;;;20.30;48.90;;;;;;5070594;28;20032;-34
2024/02/15 07:48:48;;;;;;;2.50;1.50;;;20.20;49.00;;;;;;5071255;28;19912;-34
2024/02/15 07:51:15;;;;;;;2.20;1.48;;;20.20;49.00;;;;;;5048286;28;20037;-34
2024/02/15 07:53:42;;;;;;;;;;;20.30;48.90;;;;;;5070758;28;20052;-33
2024/02/15 07:56:13;;;;;;;1.83;1.50;;;20.30;48.90;;;;;;5067044;28;20663;-34
2024/02/15 07:58:46;;;;;;;1.60;1.17;;;20.20;48.90;;;;;;5064089;28;20029;-34
2024/02/15 08:01:21;;;;;;;4.03;1.50;;;20.20;49.00;;;;;;5048030;28;20024;-34
2024/02/15 08:03:48;;;;;;;1.80;1.38;;;20.10;49.10;;;;;;5068967;28;20033;-35
2024/02/15 08:06:15;;;;;;;2.47;1.30;;;20.10;49.00;;;;;;5071014;28;20059;-35
2024/02/15 08:08:47;;;;;;;;;;;20.20;49.00;;;;;;5064697;28;20059;-35
2024/02/15 08:11:17;;;;;;;3.85;1.40;;;20.20;49.50;;;;;;5068642;28;19956;-35
2024/02/15 08:13:49;;;;;;;2.92;1.50;;;20.20;49.00;;;;;;5072375;28;20104;-34
2024/02/15 08:16:16;;;;;;;2.25;1.50;;;20.10;49.10;;;;;;5072680;28;20040;-34
2024/02/15 08:18:48;;;;;;;2.75;1.60;;;20.10;49.20;;;;;;5070503;28;20698;-34
2024/02/15 08:21:14;;;;;;;4.75;1.45;;;20.00;49.20;;;;;;5069256;28;20453;-35
2024/02/15 08:23:40;;;;;;;2.17;1.30;;;20.10;49.20;;;;;;5070703;28;20031;-34
2024/02/15 08:26:07;;;;;;;3.05;1.50;;;20.10;49.10;;;;;;5069935;28;20029;-35
2024/02/15 08:28:33;;;;;;;2.53;1.60;;;20.10;49.10;;;;;;5070275;28;20532;-34
2024/02/15 08:30:59;;;;;;;3.63;1.58;;;20.10;49.10;;;;;;5069304;28;20051;-35
2024/02/15 08:33:28;;;;;;;2.85;1.45;;;20.00;49.20;;;;;;5071386;28;20546;-35
2024/02/15 08:35:55;;;;;;;1.58;1.17;;;20.00;49.20;;;;;;5065900;28;20039;-35
2024/02/15 08:38:24;;;;;;;2.03;1.38;;;20.10;49.20;;;;;;5068540;28;20029;-35
2024/02/15 08:40:51;;;;;;;2.70;1.50;;;20.10;49.10;;;;;;5067584;28;20028;-35
2024/02/15 08:43:17;;;;;;;2.40;1.63;;;20.10;49.10;;;;;;5073903;28;20112;-34
2024/02/15 08:45:44;;;;;;;2.13;1.23;;;20.00;49.10;;;;;;5059080;28;20059;-35
2024/02/15 08:48:10;;;;;;;2.25;1.60;;;20.00;49.20;;;;;;5076938;28;20023;-35
2024/02/15 08:50:36;;;;;;;2.38;1.40;;;19.90;49.20;;;;;;5073973;28;20029;-35
2024/02/15 08:53:06;;;;;;;1.85;1.40;;;20.00;49.20;;;;;;5084075;28;20138;-35
2024/02/15 08:55:35;;;;;;;2.42;1.50;;;20.00;49.10;;;;;;5064758;28;20025;-39
2024/02/15 08:58:02;;;;;;;2.92;1.58;;;20.00;49.10;;;;;;5083484;28;20078;-34
2024/02/15 09:00:29;;;;;;;3.40;1.60;;;20.00;49.10;;;;;;5076673;28;20031;-34
2024/02/15 09:02:57;;;;;;;2.90;1.85;;;19.90;49.20;;;;;;5077400;28;20035;-35
2024/02/15 09:05:23;;;;;;;2.20;1.50;;;20.00;49.20;;;;;;5076491;28;20053;-36
2024/02/15 09:07:51;;;;;;;2.00;1.60;;;20.00;49.60;;;;;;5076489;28;20089;-35
2024/02/15 09:10:17;;;;;;;2.92;1.70;;;20.10;48.90;;;;;;5083866;28;20036;-36
2024/02/15 09:12:46;;;;;;;2.88;1.60;;;20.20;48.90;;;;;;5077325;28;20024;-35
2024/02/15 09:15:12;;;;;;;2.08;1.65;;;20.30;48.90;;;;;;5084368;28;20055;-35
2024/02/15 09:17:39;;;;;;;2.88;2.22;;;20.40;48.80;;;;;;5065537;28;20115;-36
2024/02/15 09:20:14;;;;;;;3.78;2.08;;;20.40;48.70;;;;;;5078993;28;20039;-36
2024/02/15 09:22:47;;;;;;;2.10;1.50;;;20.40;48.70;;;;;;5074742;28;20036;-35
2024/02/15 09:25:13;;;;;;;4.72;1.92;;;20.40;48.60;;;;;;5081325;28;20013;-35
2024/02/15 09:27:40;;;;;;;9.25;2.47;;;20.50;48.50;;;;;;5073634;28;20029;-35
2024/02/15 09:30:09;;;;;;;13.98;3.10;;;20.50;48.70;;;;;;5078335;28;20043;-35
2024/02/15 09:32:41;;;;;;;7.35;2.80;;;20.50;48.80;;;;;;5075794;28;20071;-35
2024/02/15 09:35:08;;;;;;;9.18;3.13;;;20.40;48.90;;;;;;5077043;28;20102;-35
2024/02/15 09:37:56;;;;;;;;;;;20.30;49.00;;;;;;5063119;28;20029;-35
2024/02/15 09:40:25;;;;;;;6.32;3.03;;;20.30;49.10;;;;;;5071291;28;19912;-35
2024/02/15 09:42:52;;;;;;;6.15;2.30;;;20.30;49.20;;;;;;5069976;28;20025;-35
2024/02/15 09:45:20;;;;;;;6.43;2.33;;;20.40;49.10;;;;;;5082464;28;20036;-35
2024/02/15 09:47:48;;;;;;;4.72;2.47;;;20.30;49.10;;;;;;5076169;28;20055;-35
2024/02/15 09:50:15;;;;;;;5.53;2.60;;;20.30;49.00;;;;;;5080187;28;20058;-35
2024/02/15 09:52:51;;;;;;;6.35;2.80;;;20.30;49.20;;;;;;5078736;28;20036;-35
2024/02/15 09:55:18;;;;;;;4.85;2.50;;;20.20;49.20;;;;;;5076873;28;20115;-36
2024/02/15 09:57:48;;;;;;;2.77;2.07;;;20.30;49.20;;;;;;5079152;28;20064;-36
2024/02/15 10:00:16;;;;;;;5.68;2.40;;;20.40;49.00;;;;;;5048862;28;20135;-35
2024/02/15 10:02:50;;;;;;;7.18;2.13;;;20.50;48.80;;;;;;5079233;28;20572;-36
2024/02/15 10:05:17;;;;;;;3.92;1.98;;;20.40;48.80;;;;;;5071876;28;20060;-35
2024/02/15 10:07:44;;;;;;;3.53;2.00;;;20.40;48.80;;;;;;5072597;28;20041;-36
2024/02/15 10:10:20;;;;;;;3.00;1.90;;;20.30;48.90;;;;;;5055448;28;20031;-35
2024/02/15 10:12:51;;;;;;;4.13;1.85;;;20.40;48.90;;;;;;5073959;28;20029;-35
2024/02/15 10:15:37;;;;;;;4.55;1.88;;;20.40;48.90;;;;;;5073480;28;20017;-36
2024/02/15 10:18:04;;;;;;;3.13;2.20;;;20.30;48.90;;;;;;5058922;28;20032;-35
2024/02/15 10:20:31;;;;;;;2.10;1.67;;;20.30;49.00;;;;;;5073220;28;20504;-35
2024/02/15 10:23:00;;;;;;;5.63;2.03;;;20.20;48.90;;;;;;5073920;28;20060;-36
2024/02/15 10:25:29;;;;;;;2.80;1.63;;;20.20;49.00;;;;;;5078574;28;20020;-35
2024/02/15 10:28:08;;;;;;;3.55;2.10;;;20.20;48.90;;;;;;5074122;28;20033;-35
2024/02/15 10:30:35;;;;;;;2.63;1.90;;;20.30;48.90;;;;;;5073777;28;20072;-35
2024/02/15 10:33:02;;;;;;;2.63;1.92;;;20.20;48.80;;;;;;5080784;28;20033;-35
2024/02/15 10:35:28;;;;;;;2.33;1.80;;;20.20;48.80;;;;;;5062196;28;20109;-34
2024/02/15 10:38:09;;;;;;;3.38;1.98;;;20.10;48.90;;;;;;5073294;28;20017;-34
2024/02/15 10:40:35;;;;;;;2.72;1.95;;;20.10;49.00;;;;;;5078105;28;20025;-34
2024/02/15 10:43:05;;;;;;;2.80;1.87;;;20.10;48.90;;;;;;5077267;28;20036;-34
2024/02/15 10:45:31;;;;;;;2.45;1.70;;;20.20;48.80;;;;;;5077366;28;20035;-35
2024/02/15 10:47:58;;;;;;;3.15;2.15;;;20.10;48.80;;;;;;5072475;28;20025;-34
2024/02/15 10:50:24;;;;;;;2.78;1.80;;;20.10;48.80;;;;;;5077183;28;20082;-35
2024/02/15 10:52:58;;;;;;;2.55;1.80;;;20.00;48.80;;;;;;5078680;28;20037;-34
2024/02/15 10:56:05;;;;;;;2.45;1.80;;;20.00;49.00;;;;;;5067555;28;20032;-34
2024/02/15 10:58:37;;;;;;;2.33;1.90;;;20.00;48.90;;;;;;5012193;28;20046;-34
2024/02/15 11:01:08;;;;;;;2.45;1.77;;;20.10;48.80;;;;;;5016886;28;20046;-34
2024/02/15 11:03:41;;;;;;;2.33;1.70;;;20.10;48.90;;;;;;5017964;28;20026;-34
2024/02/15 11:06:07;;;;;;;2.50;1.90;;;20.00;48.90;;;;;;5018303;28;20066;-35
2024/02/15 11:08:33;;;;;;;6.90;2.05;;;20.00;48.90;;;;;;5015241;28;20033;-35
2024/02/15 11:11:04;;;;;;;3.88;1.80;;;20.00;49.10;;;;;;5020189;28;20053;-34
2024/02/15 11:13:30;;;;;;;2.17;1.70;;;20.00;49.00;;;;;;4997282;28;20089;-34
2024/02/15 11:15:58;;;;;;;2.63;1.88;;;20.00;48.90;;;;;;5022012;28;20030;-34
2024/02/15 11:18:44;;;;;;;2.30;2.00;;;20.00;49.00;;;;;;5014862;28;20032;-34
2024/02/15 11:21:11;;;;;;;2.47;2.00;;;20.00;49.10;;;;;;5013778;28;20038;-34
2024/02/15 11:23:37;;;;;;;7.63;1.85;;;19.90;49.10;;;;;;5022630;28;20076;-34
2024/02/15 11:26:04;;;;;;;3.85;2.00;;;19.90;49.20;;;;;;5018582;28;20089;-35
2024/02/15 11:28:36;;;;;;;2.70;1.90;;;20.00;49.10;;;;;;5017558;28;20046;-35
2024/02/15 11:31:03;;;;;;;2.60;1.88;;;20.00;49.00;;;;;;5011269;28;20065;-35
2024/02/15 11:33:30;;;;;;;2.40;1.93;;;20.00;49.00;;;;;;5030677;28;20051;-35
2024/02/15 11:36:09;;;;;;;2.28;1.70;;;20.00;49.60;;;;;;5073013;28;20282;-35
2024/02/15 11:38:36;;;;;;;2.28;1.60;;;20.00;49.00;;;;;;5072170;28;20067;-35
2024/02/15 11:41:11;;;;;;;2.40;1.83;;;20.00;49.10;;;;;;5078845;28;20043;-34
2024/02/15 11:43:45;;;;;;;2.40;1.90;;;20.00;49.00;;;;;;5074189;28;20025;-34
2024/02/15 11:46:15;;;;;;;2.92;1.80;;;20.00;48.90;;;;;;5071394;28;20059;-35
2024/02/15 11:48:41;;;;;;;2.92;1.65;;;20.00;48.90;;;;;;5075953;28;20025;-35
2024/02/15 11:51:11;;;;;;;2.88;2.10;;;20.00;48.90;;;;;;5077621;28;20060;-35
2024/02/15 11:53:37;;;;;;;2.55;1.85;;;19.90;48.90;;;;;;5077243;28;20020;-37
2024/02/15 11:56:09;;;;;;;2.53;1.90;;;19.90;49.00;;;;;;5059584;28;20033;-34
2024/02/15 11:58:52;;;;;;;2.97;2.00;;;19.90;48.90;;;;;;5073034;28;20028;-34
2024/02/15 12:20:31;;;;;;;3.47;2.00;;;19.90;48.90;;;;;;5049933;28;20036;-35
2024/02/15 12:23:01;;;;;;;2.95;2.20;;;19.80;48.90;;;;;;5056266;28;20062;-35
2024/02/15 12:25:27;;;;;;;2.55;2.10;;;19.70;48.90;;;;;;5077843;28;20035;-35
2024/02/15 12:27:58;;;;;;;3.53;2.30;;;19.70;49.00;;;;;;5074001;28;20039;-35
2024/02/15 12:30:25;;;;;;;2.47;2.00;;;19.80;48.90;;;;;;5072642;28;20028;-35
2024/02/15 12:32:51;;;;;;;1.90;1.63;;;19.80;48.80;;;;;;5078378;28;20033;-35
2024/02/15 12:35:19;;;;;;;3.63;2.40;;;19.80;48.80;;;;;;5074992;28;20040;-35
2024/02/15 12:38:05;;;;;;;4.40;2.40;;;19.80;48.90;;;;;;5076933;28;20025;-35
2024/02/15 12:40:37;;;;;;;3.20;2.25;;;19.70;48.90;;;;;;5072196;28;20066;-36
2024/02/15 12:43:08;;;;;;;4.30;2.38;;;19.70;48.90;;;;;;5070438;28;20115;-35
2024/02/15 12:45:42;;;;;;;2.50;1.90;;;19.70;48.90;;;;;;5072294;28;20040;-37
2024/02/15 12:48:09;;;;;;;2.83;2.15;;;19.80;48.80;;;;;;5075100;28;20029;-36
2024/02/15 12:50:36;;;;;;;3.13;1.85;;;19.80;48.80;;;;;;5078002;28;20037;-35
2024/02/15 12:53:03;;;;;;;3.83;2.45;;;19.70;48.80;;;;;;5075602;28;20051;-35
2024/02/15 12:55:36;;;;;;;3.70;2.28;;;19.70;49.00;;;;;;5072385;28;20080;-35
2024/02/15 12:58:04;;;;;;;2.75;2.17;;;19.60;48.90;;;;;;5072849;28;20039;-35
2024/02/15 13:00:36;;;;;;;2.65;2.10;;;19.70;48.90;;;;;;5048823;28;20032;-35
2024/02/15 13:03:09;;;;;;;4.13;2.30;;;19.80;48.90;;;;;;5075467;28;20033;-35
2024/02/15 13:05:38;;;;;;;3.15;2.40;;;19.80;48.90;;;;;;5072923;28;20044;-35
2024/02/15 13:08:13;;;;;;;4.22;1.88;;;19.70;48.90;;;;;;5070719;28;20522;-35
2024/02/15 13:10:39;;;;;;;3.13;2.00;;;19.60;49.00;;;;;;5070582;28;20082;-35
2024/02/15 13:13:09;;;;;;;3.35;2.10;;;19.60;49.10;;;;;;5074186;28;20037;-35
2024/02/15 13:15:36;;;;;;;2.83;2.35;;;19.60;49.20;;;;;;5051246;28;20017;-35
2024/02/15 13:18:06;;;;;;;4.68;2.30;;;19.60;49.50;;;;;;5075116;28;20036;-35
2024/02/15 13:20:32;;;;;;;3.45;2.50;;;19.70;49.40;;;;;;5061661;28;20024;-35
2024/02/15 13:23:02;;;;;;;3.60;2.50;;;19.60;49.30;;;;;;5070472;28;20028;-35